sensor_id;sensor_type;location;lat;lon;timestamp;P1;durP1;ratioP1;P2;durP2;ratioP2
52438;SDS011;38359;53.150;6.504;2023-03-14T00:05:40;42.28;;;5.60;;
52438;SDS011;38359;53.150;6.504;2023-03-14T00:16:11;33.55;;;5.20;;
52438;SDS011;38359;53.150;6.504;2023-03-14T00:26:37;35.25;;;5.20;;
52438;SDS011;38359;53.150;6.504;2023-03-14T00:37:03;30.48;;;4.82;;
52438;SDS011;38359;53.150;6.504;2023-03-14T00:47:29;41.17;;;6.10;;
52438;SDS011;38359;53.150;6.504;2023-03-14T00:57:55;35.65;;;5.88;;
52438;SDS011;38359;53.150;6.504;2023-03-14T01:08:20;34.30;;;4.95;;
52438;SDS011;38359;53.150;6.504;2023-03-14T01:18:46;38.15;;;5.85;;
52438;SDS011;38359;53.150;6.504;2023-03-14T01:29:12;36.97;;;4.55;;
52438;SDS011;38359;53.150;6.504;2023-03-14T01:39:39;22.77;;;4.15;;
52438;SDS011;38359;53.150;6.504;2023-03-14T01:50:06;23.33;;;3.92;;
52438;SDS011;38359;53.150;6.504;2023-03-14T02:00:35;33.75;;;4.78;;
52438;SDS011;38359;53.150;6.504;2023-03-14T02:11:01;31.33;;;4.22;;
52438;SDS011;38359;53.150;6.504;2023-03-14T02:32:23;21.85;;;3.28;;
52438;SDS011;38359;53.150;6.504;2023-03-14T02:42:50;22.40;;;3.28;;
52438;SDS011;38359;53.150;6.504;2023-03-14T02:53:17;22.60;;;3.65;;
52438;SDS011;38359;53.150;6.504;2023-03-14T03:03:49;18.58;;;3.53;;
52438;SDS011;38359;53.150;6.504;2023-03-14T03:14:14;33.38;;;4.18;;
52438;SDS011;38359;53.150;6.504;2023-03-14T03:24:40;22.30;;;4.65;;
52438;SDS011;38359;53.150;6.504;2023-03-14T03:35:06;22.08;;;4.40;;
52438;SDS011;38359;53.150;6.504;2023-03-14T03:45:32;33.28;;;4.97;;
52438;SDS011;38359;53.150;6.504;2023-03-14T03:55:58;32.63;;;6.28;;
52438;SDS011;38359;53.150;6.504;2023-03-14T04:06:24;24.55;;;5.15;;
52438;SDS011;38359;53.150;6.504;2023-03-14T04:16:50;25.55;;;6.20;;
52438;SDS011;38359;53.150;6.504;2023-03-14T04:27:15;26.08;;;6.75;;
52438;SDS011;38359;53.150;6.504;2023-03-14T04:37:41;34.38;;;9.07;;
52438;SDS011;38359;53.150;6.504;2023-03-14T04:48:08;42.58;;;12.02;;
52438;SDS011;38359;53.150;6.504;2023-03-14T04:58:34;36.90;;;11.57;;
52438;SDS011;38359;53.150;6.504;2023-03-14T05:09:00;38.30;;;10.73;;
52438;SDS011;38359;53.150;6.504;2023-03-14T05:19:26;33.50;;;11.15;;
52438;SDS011;38359;53.150;6.504;2023-03-14T05:29:52;37.75;;;11.30;;
52438;SDS011;38359;53.150;6.504;2023-03-14T05:40:17;33.08;;;10.73;;
52438;SDS011;38359;53.150;6.504;2023-03-14T05:50:43;41.67;;;11.00;;
52438;SDS011;38359;53.150;6.504;2023-03-14T06:01:09;34.70;;;11.32;;
52438;SDS011;38359;53.150;6.504;2023-03-14T06:11:35;17.02;;;7.70;;
52438;SDS011;38359;53.150;6.504;2023-03-14T06:22:00;19.60;;;6.72;;
52438;SDS011;38359;53.150;6.504;2023-03-14T06:32:26;23.98;;;6.68;;
52438;SDS011;38359;53.150;6.504;2023-03-14T06:42:52;25.08;;;1.95;;
52438;SDS011;38359;53.150;6.504;2023-03-14T06:53:18;33.97;;;3.60;;
52438;SDS011;38359;53.150;6.504;2023-03-14T07:03:44;33.10;;;2.70;;
52438;SDS011;38359;53.150;6.504;2023-03-14T07:14:09;14.43;;;2.03;;
52438;SDS011;38359;53.150;6.504;2023-03-14T07:24:36;25.02;;;1.80;;
52438;SDS011;38359;53.150;6.504;2023-03-14T07:35:01;8.35;;;0.93;;
52438;SDS011;38359;53.150;6.504;2023-03-14T07:45:27;4.43;;;0.77;;
52438;SDS011;38359;53.150;6.504;2023-03-14T07:55:54;9.63;;;1.00;;
52438;SDS011;38359;53.150;6.504;2023-03-14T08:06:20;9.10;;;0.98;;
52438;SDS011;38359;53.150;6.504;2023-03-14T08:16:45;12.18;;;0.95;;
52438;SDS011;38359;53.150;6.504;2023-03-14T08:27:11;6.13;;;1.27;;
52438;SDS011;38359;53.150;6.504;2023-03-14T08:37:39;10.63;;;1.38;;
52438;SDS011;38359;53.150;6.504;2023-03-14T08:48:05;19.02;;;2.72;;
52438;SDS011;38359;53.150;6.504;2023-03-14T08:58:32;29.85;;;3.38;;
52438;SDS011;38359;53.150;6.504;2023-03-14T09:08:58;42.45;;;3.20;;
52438;SDS011;38359;53.150;6.504;2023-03-14T09:19:24;36.53;;;4.28;;
52438;SDS011;38359;53.150;6.504;2023-03-14T09:29:49;38.13;;;3.95;;
52438;SDS011;38359;53.150;6.504;2023-03-14T09:40:16;35.08;;;4.43;;
52438;SDS011;38359;53.150;6.504;2023-03-14T09:50:47;39.10;;;4.47;;
52438;SDS011;38359;53.150;6.504;2023-03-14T10:01:16;38.47;;;3.97;;
52438;SDS011;38359;53.150;6.504;2023-03-14T10:11:49;35.17;;;4.47;;
52438;SDS011;38359;53.150;6.504;2023-03-14T10:22:17;28.13;;;3.53;;
52438;SDS011;38359;53.150;6.504;2023-03-14T10:32:43;25.23;;;3.15;;
52438;SDS011;38359;53.150;6.504;2023-03-14T10:43:13;23.23;;;3.20;;
52438;SDS011;38359;53.150;6.504;2023-03-14T10:54:14;27.48;;;3.10;;
52438;SDS011;38359;53.150;6.504;2023-03-14T11:04:56;19.90;;;2.38;;
52438;SDS011;38359;53.150;6.504;2023-03-14T11:37:36;21.58;;;2.10;;
52438;SDS011;38359;53.150;6.504;2023-03-14T11:59:25;12.43;;;1.80;;
52438;SDS011;38359;53.150;6.504;2023-03-14T12:09:58;20.75;;;1.65;;
52438;SDS011;38359;53.150;6.504;2023-03-14T12:20:24;12.50;;;2.05;;
52438;SDS011;38359;53.150;6.504;2023-03-14T12:30:51;14.00;;;1.60;;
52438;SDS011;38359;53.150;6.504;2023-03-14T12:41:19;16.73;;;2.63;;
52438;SDS011;38359;53.150;6.504;2023-03-14T12:51:58;32.42;;;2.75;;
52438;SDS011;38359;53.150;6.504;2023-03-14T13:02:29;16.52;;;2.20;;
52438;SDS011;38359;53.150;6.504;2023-03-14T13:23:30;14.88;;;2.47;;
52438;SDS011;38359;53.150;6.504;2023-03-14T13:33:59;10.50;;;1.88;;
52438;SDS011;38359;53.150;6.504;2023-03-14T13:44:33;13.57;;;2.33;;
52438;SDS011;38359;53.150;6.504;2023-03-14T13:55:04;15.68;;;2.00;;
52438;SDS011;38359;53.150;6.504;2023-03-14T14:05:40;12.45;;;2.08;;
52438;SDS011;38359;53.150;6.504;2023-03-14T14:16:09;12.82;;;1.80;;
52438;SDS011;38359;53.150;6.504;2023-03-14T14:26:35;16.58;;;2.08;;
52438;SDS011;38359;53.150;6.504;2023-03-14T14:48:08;18.98;;;3.33;;
52438;SDS011;38359;53.150;6.504;2023-03-14T14:58:40;22.73;;;3.55;;
52438;SDS011;38359;53.150;6.504;2023-03-14T15:09:08;17.50;;;2.20;;
52438;SDS011;38359;53.150;6.504;2023-03-14T15:19:35;10.93;;;1.90;;
52438;SDS011;38359;53.150;6.504;2023-03-14T15:30:01;17.88;;;2.25;;
52438;SDS011;38359;53.150;6.504;2023-03-14T15:40:27;16.17;;;2.17;;
52438;SDS011;38359;53.150;6.504;2023-03-14T15:50:53;23.35;;;2.90;;
52438;SDS011;38359;53.150;6.504;2023-03-14T16:01:19;15.38;;;2.33;;
52438;SDS011;38359;53.150;6.504;2023-03-14T16:11:45;14.25;;;2.30;;
52438;SDS011;38359;53.150;6.504;2023-03-14T16:22:11;29.30;;;2.42;;
52438;SDS011;38359;53.150;6.504;2023-03-14T16:32:37;14.80;;;2.58;;
52438;SDS011;38359;53.150;6.504;2023-03-14T16:43:02;23.63;;;3.78;;
52438;SDS011;38359;53.150;6.504;2023-03-14T16:53:28;20.95;;;2.47;;
52438;SDS011;38359;53.150;6.504;2023-03-14T17:03:54;14.25;;;1.80;;
52438;SDS011;38359;53.150;6.504;2023-03-14T17:14:20;19.25;;;2.28;;
52438;SDS011;38359;53.150;6.504;2023-03-14T17:24:48;20.05;;;3.10;;
52438;SDS011;38359;53.150;6.504;2023-03-14T17:35:14;18.67;;;3.60;;
52438;SDS011;38359;53.150;6.504;2023-03-14T17:45:39;19.83;;;2.58;;
52438;SDS011;38359;53.150;6.504;2023-03-14T17:56:07;20.90;;;2.60;;
52438;SDS011;38359;53.150;6.504;2023-03-14T18:06:34;16.75;;;2.75;;
52438;SDS011;38359;53.150;6.504;2023-03-14T18:17:00;25.85;;;5.53;;
52438;SDS011;38359;53.150;6.504;2023-03-14T18:27:26;13.68;;;3.53;;
52438;SDS011;38359;53.150;6.504;2023-03-14T18:37:52;16.20;;;3.20;;
52438;SDS011;38359;53.150;6.504;2023-03-14T18:48:18;19.10;;;4.47;;
52438;SDS011;38359;53.150;6.504;2023-03-14T18:58:44;25.33;;;6.35;;
52438;SDS011;38359;53.150;6.504;2023-03-14T19:09:13;20.92;;;3.83;;
52438;SDS011;38359;53.150;6.504;2023-03-14T19:19:40;21.17;;;3.15;;
52438;SDS011;38359;53.150;6.504;2023-03-14T19:30:06;26.15;;;3.40;;
52438;SDS011;38359;53.150;6.504;2023-03-14T19:40:32;15.85;;;3.47;;
52438;SDS011;38359;53.150;6.504;2023-03-14T19:51:01;16.25;;;2.70;;
52438;SDS011;38359;53.150;6.504;2023-03-14T20:01:27;17.40;;;3.13;;
52438;SDS011;38359;53.150;6.504;2023-03-14T20:11:53;26.33;;;3.17;;
52438;SDS011;38359;53.150;6.504;2023-03-14T20:22:19;23.25;;;3.38;;
52438;SDS011;38359;53.150;6.504;2023-03-14T20:32:44;17.23;;;3.10;;
52438;SDS011;38359;53.150;6.504;2023-03-14T20:43:10;25.48;;;3.50;;
52438;SDS011;38359;53.150;6.504;2023-03-14T20:53:36;13.55;;;3.25;;
52438;SDS011;38359;53.150;6.504;2023-03-14T21:04:06;18.52;;;2.50;;
52438;SDS011;38359;53.150;6.504;2023-03-14T21:14:31;24.35;;;3.05;;
52438;SDS011;38359;53.150;6.504;2023-03-14T21:24:57;17.33;;;2.10;;
52438;SDS011;38359;53.150;6.504;2023-03-14T21:35:23;22.27;;;2.30;;
52438;SDS011;38359;53.150;6.504;2023-03-14T21:45:49;13.30;;;2.28;;
52438;SDS011;38359;53.150;6.504;2023-03-14T21:56:15;9.88;;;2.05;;
52438;SDS011;38359;53.150;6.504;2023-03-14T22:06:41;10.43;;;1.95;;
52438;SDS011;38359;53.150;6.504;2023-03-14T22:17:08;10.10;;;1.92;;
52438;SDS011;38359;53.150;6.504;2023-03-14T22:27:34;11.02;;;1.70;;
52438;SDS011;38359;53.150;6.504;2023-03-14T22:38:00;6.13;;;1.17;;
52438;SDS011;38359;53.150;6.504;2023-03-14T22:48:26;6.82;;;1.83;;
52438;SDS011;38359;53.150;6.504;2023-03-14T22:58:52;9.82;;;1.75;;
52438;SDS011;38359;53.150;6.504;2023-03-14T23:09:24;13.50;;;2.05;;
52438;SDS011;38359;53.150;6.504;2023-03-14T23:19:51;8.88;;;1.63;;
52438;SDS011;38359;53.150;6.504;2023-03-14T23:30:17;7.38;;;1.50;;
52438;SDS011;38359;53.150;6.504;2023-03-14T23:40:45;13.75;;;2.47;;
52438;SDS011;38359;53.150;6.504;2023-03-14T23:51:10;8.68;;;1.50;;
